createdAt,value
2019-02-12T00:00:24.803Z,88.93
2019-02-12T00:01:24.791Z,89.69
2019-02-12T00:02:45.779Z,89.59
2019-02-12T00:03:24.766Z,89.50
2019-02-12T00:04:24.787Z,91.10
2019-02-12T00:05:24.765Z,92.52
2019-02-12T00:06:24.747Z,95.07
2019-02-12T00:07:24.727Z,95.64
2019-02-12T00:08:45.714Z,96.40
2019-02-12T00:09:24.702Z,96.88
2019-02-12T00:10:24.694Z,97.91
2019-02-12T00:11:24.706Z,98.10
2019-02-12T00:12:24.669Z,97.91
2019-02-12T00:13:24.664Z,97.82
2019-02-12T00:14:45.681Z,98.10
2019-02-12T00:15:24.641Z,98.29
2019-02-12T00:16:24.630Z,98.48
2019-02-12T00:17:24.626Z,99.43
2019-02-12T00:18:24.609Z,98.86
2019-02-12T00:19:24.594Z,99.15
2019-02-12T00:20:45.594Z,99.05
2019-02-12T00:21:24.575Z,99.15
2019-02-12T00:22:24.569Z,99.43
2019-02-12T00:23:24.552Z,99.33
2019-02-12T00:24:24.543Z,99.62
2019-02-12T00:25:24.530Z,99.80
2019-02-12T00:26:45.527Z,99.99
2019-02-12T00:27:24.514Z,99.99
2019-02-12T00:28:24.507Z,99.99
2019-02-12T00:29:24.493Z,99.99
2019-02-12T00:30:24.481Z,99.99
2019-02-12T00:31:24.471Z,99.99
2019-02-12T00:32:45.465Z,99.99
2019-02-12T00:33:24.452Z,99.99
2019-02-12T00:34:24.439Z,99.99
2019-02-12T00:35:24.427Z,99.99
2019-02-12T00:36:24.415Z,99.99
2019-02-12T00:37:24.418Z,99.99
2019-02-12T00:38:45.406Z,99.95
2019-02-12T00:39:24.388Z,99.99
2019-02-12T00:40:24.376Z,99.99
2019-02-12T00:41:24.368Z,99.99
2019-02-12T00:42:24.356Z,99.99
2019-02-12T00:43:24.347Z,99.99
2019-02-12T00:44:45.352Z,99.99
2019-02-12T00:45:24.328Z,99.99
2019-02-12T00:46:24.316Z,99.99
2019-02-12T00:47:24.304Z,99.99
2019-02-12T00:48:24.290Z,99.99
2019-02-12T00:49:24.285Z,99.99
2019-02-12T00:50:45.278Z,99.99
2019-02-12T00:51:24.263Z,99.99
2019-02-12T00:52:24.251Z,99.99
2019-02-12T00:53:24.246Z,99.99
2019-02-12T00:54:24.336Z,99.99
2019-02-12T00:55:24.214Z,99.99
2019-02-12T00:56:45.223Z,99.99
2019-02-12T00:57:24.205Z,99.99
2019-02-12T00:58:24.190Z,99.99
2019-02-12T00:59:24.173Z,99.99
2019-02-12T01:00:24.169Z,99.99
2019-02-12T01:01:24.156Z,99.99
2019-02-12T01:02:45.153Z,99.99
2019-02-12T01:03:24.147Z,99.99
2019-02-12T01:04:24.122Z,99.99
2019-02-12T01:05:24.108Z,98.86
2019-02-12T01:06:24.103Z,99.33
2019-02-12T01:07:24.096Z,98.39
2019-02-12T01:08:45.086Z,98.10
2019-02-12T01:09:24.070Z,97.72
2019-02-12T01:10:24.058Z,97.91
2019-02-12T01:11:24.046Z,97.16
2019-02-12T01:12:24.046Z,97.34
2019-02-12T01:13:24.026Z,96.40
2019-02-12T01:14:45.025Z,96.31
2019-02-12T01:15:24.001Z,96.50
2019-02-12T01:16:23.993Z,95.36
2019-02-12T01:17:23.982Z,95.36
2019-02-12T01:18:23.979Z,94.98
2019-02-12T01:19:24.022Z,95.07
2019-02-12T01:20:44.952Z,94.04
2019-02-12T01:21:26.315Z,94.04
2019-02-12T01:22:23.927Z,94.04
2019-02-12T01:23:23.912Z,93.85
2019-02-12T01:24:23.907Z,93.94
2019-02-12T01:25:23.892Z,93.75
2019-02-12T01:26:44.892Z,94.60
2019-02-12T01:27:23.871Z,94.70
2019-02-12T01:28:23.867Z,94.98
2019-02-12T01:29:23.844Z,94.70
2019-02-12T01:30:23.833Z,95.07
2019-02-12T01:31:23.842Z,94.13
2019-02-12T01:32:44.832Z,94.04
2019-02-12T01:33:23.811Z,94.04
2019-02-12T01:34:23.791Z,93.47
2019-02-12T01:35:23.787Z,93.66
2019-02-12T01:36:23.776Z,93.28
2019-02-12T01:37:24.020Z,92.24
2019-02-12T01:38:44.755Z,92.61
2019-02-12T01:39:23.748Z,92.43
2019-02-12T01:40:23.729Z,92.43
2019-02-12T01:41:23.726Z,92.05
2019-02-12T01:42:23.711Z,91.77
2019-02-12T01:43:23.697Z,91.67
2019-02-12T01:44:44.694Z,91.96
2019-02-12T01:45:23.677Z,90.91
2019-02-12T01:46:23.670Z,90.63
2019-02-12T01:47:23.656Z,91.01
2019-02-12T01:48:23.648Z,90.06
2019-02-12T01:49:23.633Z,89.78
2019-02-12T01:50:44.630Z,89.45
2019-02-12T01:51:23.608Z,88.69
2019-02-12T01:52:23.594Z,89.07
2019-02-12T01:53:23.584Z,89.26
2019-02-12T01:54:23.570Z,88.79
2019-02-12T01:55:23.559Z,88.12
2019-02-12T01:56:44.559Z,87.93
2019-02-12T01:57:23.539Z,87.37
2019-02-12T01:58:23.531Z,86.52
2019-02-12T01:59:23.523Z,84.91
2019-02-12T02:00:23.506Z,83.97
2019-02-12T02:01:23.497Z,82.83
2019-02-12T02:02:44.487Z,81.41
2019-02-12T02:03:23.477Z,80.08
2019-02-12T02:04:23.461Z,79.52
2019-02-12T02:05:23.452Z,78.48
2019-02-12T02:06:23.445Z,78.29
2019-02-12T02:07:23.432Z,77.34
2019-02-12T02:08:44.424Z,76.78
2019-02-12T02:09:23.400Z,76.40
2019-02-12T02:10:23.392Z,75.83
2019-02-12T02:11:23.380Z,75.36
2019-02-12T02:12:23.377Z,74.88
2019-02-12T02:13:23.362Z,74.88
2019-02-12T02:14:44.365Z,74.98
2019-02-12T02:15:23.336Z,74.98
2019-02-12T02:16:23.326Z,74.88
2019-02-12T02:17:23.309Z,74.98
2019-02-12T02:18:23.315Z,74.79
2019-02-12T02:19:23.293Z,74.69
2019-02-12T02:20:44.287Z,74.88
2019-02-12T02:21:23.267Z,75.64
2019-02-12T02:22:23.259Z,75.26
2019-02-12T02:23:23.245Z,75.26
2019-02-12T02:24:23.230Z,76.21
2019-02-12T02:25:23.235Z,76.40
2019-02-12T02:26:44.221Z,77.34
2019-02-12T02:27:23.502Z,78.29
2019-02-12T02:28:23.189Z,78.01
2019-02-12T02:29:23.182Z,78.10
2019-02-12T02:30:23.160Z,78.29
2019-02-12T02:31:23.180Z,78.20
2019-02-12T02:32:44.150Z,77.91
2019-02-12T02:33:23.171Z,77.63
2019-02-12T02:34:23.121Z,77.06
2019-02-12T02:35:23.114Z,76.31
2019-02-12T02:36:23.111Z,76.21
2019-02-12T02:37:23.082Z,77.44
2019-02-12T02:38:44.083Z,78.20
2019-02-12T02:39:23.068Z,79.71
2019-02-12T02:40:23.054Z,79.90
2019-02-12T02:41:23.042Z,79.52
2019-02-12T02:42:23.035Z,79.38
2019-02-12T02:43:23.018Z,79.00
2019-02-12T02:44:44.014Z,78.53
2019-02-12T02:45:22.997Z,77.59
2019-02-12T02:46:22.980Z,76.64
2019-02-12T02:47:22.965Z,75.23
2019-02-12T02:48:22.960Z,74.19
2019-02-12T02:49:22.951Z,73.43
2019-02-12T02:50:43.942Z,71.35
2019-02-12T02:51:22.947Z,69.65
2019-02-12T02:52:22.914Z,67.57
2019-02-12T02:53:22.905Z,66.06
2019-02-12T02:54:22.892Z,64.86
2019-02-12T02:55:22.891Z,62.59
2019-02-12T02:56:43.869Z,60.70
2019-02-12T02:57:22.863Z,59.00
2019-02-12T02:58:22.847Z,56.92
2019-02-12T02:59:22.832Z,54.84
2019-02-12T03:00:22.822Z,53.14
2019-02-12T03:01:22.807Z,50.96
2019-02-12T03:02:43.812Z,48.60
2019-02-12T03:03:22.789Z,46.99
2019-02-12T03:04:22.774Z,45.76
2019-02-12T03:05:22.761Z,44.34
2019-02-12T03:06:22.757Z,43.40
2019-02-12T03:07:22.736Z,41.60
2019-02-12T03:08:43.837Z,40.37
2019-02-12T03:09:22.725Z,38.86
2019-02-12T03:10:22.706Z,37.82
2019-02-12T03:11:22.698Z,37.06
2019-02-12T03:12:22.681Z,35.93
2019-02-12T03:13:22.673Z,35.27
2019-02-12T03:14:43.660Z,34.61
2019-02-12T03:15:22.642Z,34.13
2019-02-12T03:16:22.631Z,33.94
2019-02-12T03:17:22.641Z,33.00
2019-02-12T03:18:22.619Z,32.71
2019-02-12T03:19:22.649Z,32.53
2019-02-12T03:20:43.601Z,31.77
2019-02-12T03:21:22.575Z,31.29
2019-02-12T03:22:22.568Z,30.91
2019-02-12T03:23:22.558Z,31.01
2019-02-12T03:24:22.540Z,30.35
2019-02-12T03:25:22.544Z,30.07
2019-02-12T03:26:43.518Z,29.88
2019-02-12T03:27:22.512Z,29.69
2019-02-12T03:28:22.502Z,29.69
2019-02-12T03:29:22.489Z,29.69
2019-02-12T03:30:22.477Z,29.88
2019-02-12T03:31:22.469Z,29.88
2019-02-12T03:32:43.458Z,30.16
2019-02-12T03:33:22.461Z,30.16
2019-02-12T03:34:22.430Z,30.54
2019-02-12T03:35:22.428Z,30.63
2019-02-12T03:36:22.407Z,31.01
2019-02-12T03:37:22.393Z,31.10
2019-02-12T03:38:43.391Z,30.82
2019-02-12T03:39:22.375Z,31.01
2019-02-12T03:40:22.366Z,30.91
2019-02-12T03:41:22.352Z,30.91
2019-02-12T03:42:22.333Z,31.01
2019-02-12T03:43:22.331Z,31.01
2019-02-12T03:44:43.321Z,31.20
2019-02-12T03:45:22.310Z,31.01
2019-02-12T03:46:22.290Z,31.20
2019-02-12T03:47:22.281Z,31.39
2019-02-12T03:48:22.273Z,31.77
2019-02-12T03:49:22.260Z,31.69
2019-02-12T03:50:43.260Z,31.88
2019-02-12T03:51:22.238Z,32.07
2019-02-12T03:52:22.229Z,31.88
2019-02-12T03:53:22.218Z,31.98
2019-02-12T03:54:22.208Z,32.54
2019-02-12T03:55:22.198Z,32.82
2019-02-12T03:56:43.189Z,32.82
2019-02-12T03:57:22.175Z,33.75
2019-02-12T03:58:22.160Z,34.32
2019-02-12T03:59:22.150Z,35.46
2019-02-12T04:00:22.138Z,36.02
2019-02-12T04:01:22.135Z,36.59
2019-02-12T04:02:43.128Z,37.44
2019-02-12T04:03:22.108Z,37.92
2019-02-12T04:04:22.091Z,38.76
2019-02-12T04:05:22.101Z,39.62
2019-02-12T04:06:22.078Z,40.37
2019-02-12T04:07:22.061Z,41.03
2019-02-12T04:08:44.074Z,41.41
2019-02-12T04:09:22.037Z,41.79
2019-02-12T04:10:22.027Z,41.98
2019-02-12T04:11:24.291Z,42.08
2019-02-12T04:12:21.995Z,42.27
2019-02-12T04:13:21.989Z,41.60
2019-02-12T04:14:42.986Z,41.51
2019-02-12T04:15:21.976Z,41.60
2019-02-12T04:16:21.960Z,41.13
2019-02-12T04:17:21.945Z,41.03
2019-02-12T04:18:21.937Z,41.13
2019-02-12T04:19:21.929Z,41.13
2019-02-12T04:20:42.914Z,40.37
2019-02-12T04:21:21.897Z,39.62
2019-02-12T04:22:22.917Z,39.62
2019-02-12T04:23:21.884Z,38.57
2019-02-12T04:24:21.862Z,38.29
2019-02-12T04:25:21.848Z,37.73
2019-02-12T04:26:42.844Z,37.25
2019-02-12T04:27:21.829Z,36.02
2019-02-12T04:28:21.824Z,35.36
2019-02-12T04:29:21.808Z,34.51
2019-02-12T04:30:21.820Z,33.94
2019-02-12T04:31:21.787Z,33.75
2019-02-12T04:32:42.780Z,32.62
2019-02-12T04:33:21.761Z,32.62
2019-02-12T04:34:21.796Z,32.05
2019-02-12T04:35:21.746Z,31.29
2019-02-12T04:36:21.729Z,30.54
2019-02-12T04:37:21.714Z,30.07
2019-02-12T04:38:42.714Z,29.60
2019-02-12T04:39:21.693Z,29.03
2019-02-12T04:40:21.686Z,28.46
2019-02-12T04:41:21.670Z,27.61
2019-02-12T04:42:21.659Z,27.51
2019-02-12T04:43:21.658Z,27.33
2019-02-12T04:44:42.636Z,26.57
2019-02-12T04:45:21.623Z,26.47
2019-02-12T04:46:21.613Z,26.19
2019-02-12T04:47:21.602Z,26.09
2019-02-12T04:48:21.593Z,26.28
2019-02-12T04:49:21.587Z,26.38
2019-02-12T04:50:42.583Z,26.00
2019-02-12T04:51:21.561Z,25.81
2019-02-12T04:52:21.537Z,26.00
2019-02-12T04:53:21.537Z,25.62
2019-02-12T04:54:21.521Z,25.90
2019-02-12T04:55:21.515Z,26.00
2019-02-12T04:56:42.505Z,25.81
2019-02-12T04:57:21.489Z,25.90
2019-02-12T04:58:21.757Z,25.90
2019-02-12T04:59:21.462Z,25.82
2019-02-12T05:00:21.462Z,25.82
2019-02-12T05:01:21.451Z,25.90
2019-02-12T05:02:42.438Z,25.92
2019-02-12T05:03:21.430Z,25.73
2019-02-12T05:04:21.408Z,25.45
2019-02-12T05:05:21.401Z,25.82
2019-02-12T05:06:21.391Z,25.73
2019-02-12T05:07:21.391Z,25.35
2019-02-12T05:08:42.364Z,25.63
2019-02-12T05:09:21.348Z,25.35
2019-02-12T05:10:21.345Z,25.45
2019-02-12T05:11:21.327Z,26.01
2019-02-12T05:12:21.318Z,26.01
2019-02-12T05:13:21.332Z,26.30
2019-02-12T05:14:42.308Z,26.49
2019-02-12T05:15:21.287Z,26.68
2019-02-12T05:16:21.273Z,26.96
2019-02-12T05:17:21.269Z,26.96
2019-02-12T05:18:21.274Z,27.06
2019-02-12T05:19:21.247Z,27.34
2019-02-12T05:20:42.235Z,28.00
2019-02-12T05:21:21.215Z,28.47
2019-02-12T05:22:21.215Z,29.04
2019-02-12T05:23:21.247Z,29.42
2019-02-12T05:24:21.186Z,29.90
2019-02-12T05:25:21.176Z,30.36
2019-02-12T05:26:42.169Z,31.03
2019-02-12T05:27:21.151Z,31.50
2019-02-12T05:28:21.142Z,32.17
2019-02-12T05:29:21.129Z,32.73
2019-02-12T05:30:21.123Z,32.54
2019-02-12T05:31:21.101Z,33.30
2019-02-12T05:32:42.103Z,33.77
2019-02-12T05:33:21.098Z,33.96
2019-02-12T05:34:21.080Z,34.06
2019-02-12T05:35:21.079Z,35.00
2019-02-12T05:36:21.051Z,35.57
2019-02-12T05:37:21.042Z,35.95
2019-02-12T05:38:42.049Z,36.71
2019-02-12T05:39:21.021Z,37.37
2019-02-12T05:40:21.024Z,37.65
2019-02-12T05:41:21.002Z,38.41
2019-02-12T05:42:20.983Z,38.69
2019-02-12T05:43:20.981Z,38.98
2019-02-12T05:44:41.972Z,39.26
2019-02-12T05:45:20.955Z,39.26
2019-02-12T05:46:20.934Z,39.17
2019-02-12T05:47:20.925Z,39.07
2019-02-12T05:48:21.883Z,39.17
2019-02-12T05:49:23.025Z,39.17
2019-02-12T05:50:41.897Z,39.26
2019-02-12T05:51:20.882Z,39.83
2019-02-12T05:52:20.878Z,39.73
2019-02-12T05:53:20.881Z,40.11
2019-02-12T05:54:20.866Z,40.39
2019-02-12T05:55:21.678Z,40.58
2019-02-12T05:56:41.835Z,40.20
2019-02-12T05:57:20.832Z,40.39
2019-02-12T05:58:20.809Z,40.49
2019-02-12T05:59:20.791Z,41.25
2019-02-12T06:00:20.791Z,41.25
2019-02-12T06:01:20.771Z,41.72
2019-02-12T06:02:41.773Z,42.10
2019-02-12T06:03:20.790Z,42.10
2019-02-12T06:04:20.746Z,42.47
2019-02-12T06:05:20.735Z,43.04
2019-02-12T06:06:20.728Z,43.80
2019-02-12T06:07:20.708Z,44.46
2019-02-12T06:08:41.989Z,45.60
2019-02-12T06:09:20.693Z,46.83
2019-02-12T06:10:20.684Z,47.39
2019-02-12T06:11:20.669Z,47.77
2019-02-12T06:12:20.652Z,48.25
2019-02-12T06:13:20.647Z,48.25
2019-02-12T06:14:41.629Z,48.72
2019-02-12T06:15:20.620Z,48.82
2019-02-12T06:16:20.607Z,49.95
2019-02-12T06:17:20.599Z,50.42
2019-02-12T06:18:20.591Z,50.80
2019-02-12T06:19:20.578Z,50.99
2019-02-12T06:20:41.567Z,51.46
2019-02-12T06:21:20.551Z,52.50
2019-02-12T06:22:20.539Z,53.92
2019-02-12T06:23:20.532Z,54.68
2019-02-12T06:24:20.532Z,54.96
2019-02-12T06:25:20.512Z,55.91
2019-02-12T06:26:41.506Z,56.29
2019-02-12T06:27:20.491Z,56.76
2019-02-12T06:28:20.478Z,57.52
2019-02-12T06:29:20.481Z,58.09
2019-02-12T06:30:20.456Z,58.47
2019-02-12T06:31:20.439Z,58.75
2019-02-12T06:32:41.440Z,59.03
2019-02-12T06:33:20.429Z,58.75
2019-02-12T06:34:20.424Z,58.94
2019-02-12T06:35:20.400Z,59.31
2019-02-12T06:36:20.388Z,59.98
2019-02-12T06:37:20.370Z,59.69
2019-02-12T06:38:41.375Z,58.94
2019-02-12T06:39:21.340Z,59.22
2019-02-12T06:40:20.349Z,59.31
2019-02-12T06:41:20.332Z,59.22
2019-02-12T06:42:20.315Z,59.50
2019-02-12T06:43:20.314Z,60.45
2019-02-12T06:44:41.305Z,60.07
2019-02-12T06:45:20.285Z,60.07
2019-02-12T06:46:20.324Z,60.36
2019-02-12T06:47:20.278Z,61.21
2019-02-12T06:48:20.265Z,61.11
2019-02-12T06:49:20.241Z,61.40
2019-02-12T06:50:41.233Z,61.40
2019-02-12T06:51:20.214Z,60.64
2019-02-12T06:52:20.212Z,59.98
2019-02-12T06:53:20.199Z,60.17
2019-02-12T06:54:20.187Z,59.22
2019-02-12T06:55:20.175Z,59.60
2019-02-12T06:56:41.170Z,59.88
2019-02-12T06:57:20.159Z,60.07
2019-02-12T06:58:20.145Z,60.55
2019-02-12T06:59:20.131Z,61.21
2019-02-12T07:00:20.125Z,61.87
2019-02-12T07:01:20.115Z,62.72
2019-02-12T07:02:41.911Z,63.10
2019-02-12T07:03:20.094Z,64.14
2019-02-12T07:04:20.080Z,64.52
2019-02-12T07:05:20.076Z,65.66
2019-02-12T07:06:20.058Z,66.03
2019-02-12T07:07:20.048Z,66.79
2019-02-12T07:08:41.045Z,67.17
2019-02-12T07:09:20.027Z,66.79
2019-02-12T07:10:20.019Z,67.83
2019-02-12T07:11:20.007Z,68.40
2019-02-12T07:12:20.004Z,68.68
2019-02-12T07:13:19.991Z,69.25
2019-02-12T07:14:40.979Z,70.01
2019-02-12T07:15:19.972Z,70.48
2019-02-12T07:16:19.955Z,70.86
2019-02-12T07:17:19.947Z,72.18
2019-02-12T07:18:19.933Z,72.85
2019-02-12T07:19:19.925Z,72.94
2019-02-12T07:20:40.914Z,73.79
2019-02-12T07:21:19.962Z,74.36
2019-02-12T07:22:19.894Z,74.83
2019-02-12T07:23:21.451Z,75.31
2019-02-12T07:24:19.881Z,75.40
2019-02-12T07:25:19.863Z,75.96
2019-02-12T07:26:40.855Z,76.15
2019-02-12T07:27:19.843Z,76.63
2019-02-12T07:28:19.840Z,76.86
2019-02-12T07:29:21.829Z,77.33
2019-02-12T07:30:19.811Z,77.89
2019-02-12T07:31:19.797Z,78.18
2019-02-12T07:32:40.802Z,78.18
2019-02-12T07:33:19.789Z,78.85
2019-02-12T07:34:19.792Z,79.79
2019-02-12T07:35:19.763Z,80.74
2019-02-12T07:36:19.758Z,81.21
2019-02-12T07:37:19.740Z,81.96
2019-02-12T07:38:40.730Z,83.20
2019-02-12T07:39:19.726Z,83.58
2019-02-12T07:40:19.710Z,84.05
2019-02-12T07:41:20.472Z,84.52
2019-02-12T07:42:19.694Z,84.90
2019-02-12T07:43:19.684Z,86.22
2019-02-12T07:44:40.677Z,87.93
2019-02-12T07:45:19.663Z,88.87
2019-02-12T07:46:19.656Z,88.87
2019-02-12T07:47:19.641Z,89.16
2019-02-12T07:48:19.631Z,88.87
2019-02-12T07:49:19.640Z,89.35
2019-02-12T07:50:40.607Z,89.63
2019-02-12T07:51:19.605Z,89.92
2019-02-12T07:52:19.604Z,90.48
2019-02-12T07:53:19.588Z,90.96
2019-02-12T07:54:19.585Z,91.53
2019-02-12T07:55:19.571Z,91.62
2019-02-12T07:56:40.573Z,92.19
2019-02-12T07:57:21.665Z,93.32
2019-02-12T07:58:19.541Z,94.74
2019-02-12T07:59:19.536Z,94.46
2019-02-12T08:00:19.526Z,95.12
2019-02-12T08:01:19.501Z,94.84
2019-02-12T08:02:40.511Z,95.12
2019-02-12T08:03:19.502Z,95.78
2019-02-12T08:04:19.492Z,95.93
2019-02-12T08:05:19.479Z,97.06
2019-02-12T08:06:19.470Z,97.16
2019-02-12T08:07:19.456Z,97.63
2019-02-12T08:08:40.457Z,98.11
2019-02-12T08:09:19.441Z,98.58
2019-02-12T08:10:19.446Z,99.43
2019-02-12T08:11:19.423Z,99.99
2019-02-12T08:12:19.430Z,99.99
2019-02-12T08:13:19.412Z,99.99
2019-02-12T08:14:40.405Z,99.99
2019-02-12T08:15:19.394Z,99.99
2019-02-12T08:16:19.380Z,99.99
2019-02-12T08:17:19.381Z,99.71
2019-02-12T08:18:19.370Z,99.99
2019-02-12T08:19:19.351Z,99.99
2019-02-12T08:20:40.350Z,99.99
2019-02-12T08:21:19.341Z,99.99
2019-02-12T08:22:19.328Z,99.99
2019-02-12T08:23:19.315Z,99.99
2019-02-12T08:24:19.310Z,99.99
2019-02-12T08:25:19.306Z,99.99
2019-02-12T08:26:40.303Z,99.99
2019-02-12T08:27:19.293Z,99.99
2019-02-12T08:28:19.282Z,99.99
2019-02-12T08:29:19.271Z,99.99
2019-02-12T08:30:19.275Z,99.99
2019-02-12T08:31:19.254Z,99.99
2019-02-12T08:32:40.254Z,99.99
2019-02-12T08:33:19.236Z,99.99
2019-02-12T08:34:19.243Z,99.99
2019-02-12T08:35:19.232Z,99.99
2019-02-12T08:36:19.222Z,99.99
2019-02-12T08:37:19.210Z,99.99
2019-02-12T08:38:40.205Z,99.99
2019-02-12T08:39:19.191Z,99.99
2019-02-12T08:40:19.191Z,99.99
2019-02-12T08:41:19.171Z,99.99
2019-02-12T08:42:19.168Z,99.99
2019-02-12T08:43:19.164Z,99.99
2019-02-12T08:44:40.166Z,99.99
2019-02-12T08:45:19.196Z,99.99
2019-02-12T08:46:19.146Z,99.99
2019-02-12T08:47:19.143Z,99.99
2019-02-12T08:48:19.131Z,99.99
2019-02-12T08:49:19.142Z,99.99
2019-02-12T08:50:40.131Z,99.99
2019-02-12T08:51:19.113Z,99.99
2019-02-12T08:52:19.108Z,99.99
2019-02-12T08:53:19.103Z,99.99
2019-02-12T08:54:19.102Z,99.99
2019-02-12T08:55:19.087Z,99.99
2019-02-12T08:56:40.093Z,99.99
2019-02-12T08:57:19.079Z,99.99
2019-02-12T08:58:19.074Z,99.99
2019-02-12T08:59:19.077Z,99.99
2019-02-12T09:00:19.064Z,99.99
2019-02-12T09:01:19.061Z,99.99
2019-02-12T09:02:40.070Z,99.99
2019-02-12T09:03:19.058Z,99.99
2019-02-12T09:04:19.055Z,99.99
2019-02-12T09:05:19.042Z,99.99
2019-02-12T09:06:19.047Z,99.99
2019-02-12T09:07:19.035Z,99.99
2019-02-12T09:08:40.074Z,99.99
2019-02-12T09:09:19.275Z,99.99
2019-02-12T09:10:19.042Z,99.99
2019-02-12T09:11:19.013Z,99.99
2019-02-12T09:12:19.015Z,99.99
2019-02-12T09:13:19.008Z,99.99
2019-02-12T09:14:40.012Z,99.99
2019-02-12T09:15:19.000Z,99.99
2019-02-12T09:16:18.992Z,99.99
2019-02-12T09:17:18.998Z,99.99
2019-02-12T09:18:19.001Z,99.99
2019-02-12T09:19:18.983Z,99.99
2019-02-12T09:20:39.991Z,99.99
2019-02-12T09:21:18.985Z,99.99
2019-02-12T09:22:18.971Z,99.99
2019-02-12T09:23:18.972Z,99.99
2019-02-12T09:24:18.968Z,99.99
2019-02-12T09:25:18.970Z,99.99
2019-02-12T09:26:39.970Z,99.99
2019-02-12T09:27:18.967Z,99.99
2019-02-12T09:28:19.009Z,99.99
2019-02-12T09:29:18.955Z,99.99
2019-02-12T09:30:18.955Z,99.99
2019-02-12T09:31:18.944Z,99.89
2019-02-12T09:32:39.946Z,99.99
2019-02-12T09:33:18.937Z,99.99
2019-02-12T09:34:18.948Z,99.99
2019-02-12T09:35:18.931Z,99.99
2019-02-12T09:36:18.928Z,99.99
2019-02-12T09:37:18.927Z,99.99
2019-02-12T09:38:39.931Z,99.99
2019-02-12T09:39:18.915Z,99.99
2019-02-12T09:40:19.560Z,99.99
2019-02-12T09:41:18.918Z,99.99
2019-02-12T09:42:18.912Z,99.99
2019-02-12T09:43:18.906Z,99.99
2019-02-12T09:44:39.915Z,99.99
2019-02-12T09:45:18.912Z,99.99
2019-02-12T09:46:18.913Z,99.99
2019-02-12T09:47:18.888Z,99.99
2019-02-12T09:48:18.902Z,99.99
2019-02-12T09:49:18.881Z,99.99
2019-02-12T09:50:39.882Z,99.99
2019-02-12T09:51:18.873Z,99.99
2019-02-12T09:52:18.875Z,99.99
2019-02-12T09:53:18.864Z,99.99
2019-02-12T09:54:18.861Z,99.99
2019-02-12T09:55:18.868Z,99.99
2019-02-12T09:56:39.866Z,99.99
2019-02-12T09:57:18.854Z,99.99
2019-02-12T09:58:18.837Z,99.99
2019-02-12T09:59:18.853Z,99.99
2019-02-12T10:00:18.826Z,99.99
2019-02-12T10:01:18.833Z,99.99
2019-02-12T10:02:39.834Z,99.99
2019-02-12T10:03:18.826Z,99.99
2019-02-12T10:04:18.816Z,99.99
2019-02-12T10:05:18.810Z,99.99
2019-02-12T10:06:21.967Z,99.99
2019-02-12T10:07:18.798Z,99.99
2019-02-12T10:08:39.796Z,99.99
2019-02-12T10:09:18.786Z,99.99
2019-02-12T10:10:18.786Z,99.99
2019-02-12T10:11:18.783Z,99.99
2019-02-12T10:12:18.790Z,99.99
2019-02-12T10:13:18.765Z,99.99
2019-02-12T10:14:39.773Z,99.99
2019-02-12T10:15:18.769Z,99.99
2019-02-12T10:16:18.753Z,99.99
2019-02-12T10:17:18.756Z,99.99
2019-02-12T10:18:18.743Z,99.99
2019-02-12T10:19:18.740Z,99.99
2019-02-12T10:20:39.747Z,99.99
2019-02-12T10:21:18.732Z,99.99
2019-02-12T10:22:18.719Z,99.99
2019-02-12T10:23:18.724Z,99.99
2019-02-12T10:24:19.930Z,99.99
2019-02-12T10:25:18.726Z,99.99
2019-02-12T10:26:39.711Z,99.99
2019-02-12T10:27:18.706Z,99.99
2019-02-12T10:28:18.696Z,99.99
2019-02-12T10:29:18.713Z,99.99
2019-02-12T10:30:18.691Z,99.99
2019-02-12T10:31:18.687Z,99.99
2019-02-12T10:32:39.688Z,99.99
2019-02-12T10:33:18.673Z,99.99
2019-02-12T10:34:18.672Z,99.99
2019-02-12T10:35:18.667Z,99.99
2019-02-12T10:36:18.659Z,99.99
2019-02-12T10:37:18.655Z,99.99
2019-02-12T10:38:39.663Z,99.99
2019-02-12T10:39:18.648Z,99.99
2019-02-12T10:40:18.646Z,99.99
2019-02-12T10:41:18.631Z,99.99
2019-02-12T10:42:18.658Z,99.99
2019-02-12T10:43:18.630Z,99.99
2019-02-12T10:44:39.635Z,99.99
2019-02-12T10:45:18.622Z,99.99
2019-02-12T10:46:18.609Z,99.99
2019-02-12T10:47:18.621Z,99.99
2019-02-12T10:48:18.609Z,99.99
2019-02-12T10:49:18.614Z,99.99
2019-02-12T10:50:39.621Z,98.89
2019-02-12T10:51:18.597Z,97.70
2019-02-12T10:52:18.590Z,96.41
2019-02-12T10:53:18.588Z,95.03
2019-02-12T10:54:18.587Z,92.50
2019-02-12T10:55:18.584Z,90.40
2019-02-12T10:56:39.586Z,89.97
2019-02-12T10:57:18.579Z,89.68
2019-02-12T10:58:18.566Z,89.11
2019-02-12T10:59:18.571Z,89.78
2019-02-12T11:00:18.569Z,90.21
2019-02-12T11:01:18.567Z,89.83
2019-02-12T11:02:39.581Z,89.35
2019-02-12T11:03:18.569Z,89.97
2019-02-12T11:04:18.559Z,90.26
2019-02-12T11:05:18.571Z,89.83
2019-02-12T11:06:18.574Z,89.64
2019-02-12T11:07:18.560Z,90.02
2019-02-12T11:08:39.577Z,89.78
2019-02-12T11:09:18.558Z,90.83
2019-02-12T11:10:18.556Z,91.36
2019-02-12T11:11:18.554Z,92.36
2019-02-12T11:12:18.554Z,94.46
2019-02-12T11:13:18.550Z,93.46
2019-02-12T11:14:39.563Z,94.32
2019-02-12T11:15:18.555Z,94.32
2019-02-12T11:16:18.548Z,93.55
2019-02-12T11:17:18.552Z,93.55
2019-02-12T11:18:18.553Z,94.03
2019-02-12T11:19:18.537Z,94.17
2019-02-12T11:20:39.552Z,94.08
2019-02-12T11:21:18.540Z,94.46
2019-02-12T11:22:18.549Z,94.79
2019-02-12T11:23:18.531Z,95.41
2019-02-12T11:24:18.542Z,97.79
2019-02-12T11:25:18.537Z,98.46
2019-02-12T11:26:39.546Z,99.17
2019-02-12T11:27:18.524Z,98.88
2019-02-12T11:28:18.524Z,98.55
2019-02-12T11:29:18.535Z,96.98
2019-02-12T11:30:18.530Z,97.17
2019-02-12T11:31:18.514Z,96.89
2019-02-12T11:32:39.517Z,96.79
2019-02-12T11:33:18.507Z,97.13
2019-02-12T11:34:18.504Z,97.50
2019-02-12T11:35:18.507Z,97.55
2019-02-12T11:36:18.523Z,98.03
2019-02-12T11:37:18.498Z,98.50
2019-02-12T11:38:39.503Z,98.50
2019-02-12T11:39:19.665Z,97.27
2019-02-12T11:40:18.487Z,95.84
2019-02-12T11:41:18.479Z,95.75
2019-02-12T11:42:18.487Z,96.94
2019-02-12T11:43:18.482Z,96.46
2019-02-12T11:44:39.479Z,95.41
2019-02-12T11:45:18.478Z,95.22
2019-02-12T11:46:18.471Z,95.46
2019-02-12T11:47:18.470Z,96.79
2019-02-12T11:48:18.460Z,96.31
2019-02-12T11:49:18.457Z,96.65
2019-02-12T11:50:39.461Z,96.94
2019-02-12T11:51:18.451Z,97.03
2019-02-12T11:52:18.451Z,96.65
2019-02-12T11:53:18.444Z,96.74
2019-02-12T11:54:18.450Z,97.13
2019-02-12T11:55:18.447Z,98.97
2019-02-12T11:56:39.442Z,98.41
2019-02-12T11:57:18.434Z,98.50
2019-02-12T11:58:18.423Z,98.03
2019-02-12T11:59:18.423Z,97.60
2019-02-12T12:00:18.427Z,97.60
2019-02-12T12:01:18.414Z,96.93
2019-02-12T12:02:42.007Z,96.93
2019-02-12T12:03:18.410Z,96.84
2019-02-12T12:04:18.407Z,96.36
2019-02-12T12:05:18.404Z,96.50
2019-02-12T12:06:18.401Z,96.50
2019-02-12T12:07:18.392Z,97.07
2019-02-12T12:08:39.389Z,97.55
2019-02-12T12:09:18.386Z,97.45
2019-02-12T12:10:18.381Z,97.97
2019-02-12T12:11:18.375Z,98.73
2019-02-12T12:12:18.381Z,99.30
2019-02-12T12:13:18.359Z,99.92
2019-02-12T12:14:39.380Z,98.50
2019-02-12T12:15:18.358Z,97.74
2019-02-12T12:16:18.357Z,97.74
2019-02-12T12:17:18.348Z,97.74
2019-02-12T12:18:18.344Z,96.79
2019-02-12T12:19:18.333Z,97.69
2019-02-12T12:20:39.334Z,98.50
2019-02-12T12:21:18.332Z,98.97
2019-02-12T12:22:18.324Z,98.40
2019-02-12T12:23:18.319Z,97.50
2019-02-12T12:24:18.309Z,96.55
2019-02-12T12:25:18.308Z,96.17
2019-02-12T12:26:39.320Z,96.17
2019-02-12T12:27:18.291Z,96.45
2019-02-12T12:28:18.289Z,97.41
2019-02-12T12:29:18.945Z,98.16
2019-02-12T12:30:19.045Z,97.50
2019-02-12T12:31:18.271Z,97.41
2019-02-12T12:32:39.284Z,96.36
2019-02-12T12:33:18.262Z,96.36
2019-02-12T12:34:18.265Z,96.45
2019-02-12T12:35:18.257Z,96.55
2019-02-12T12:36:18.250Z,96.31
2019-02-12T12:37:18.247Z,98.12
2019-02-12T12:38:39.244Z,97.55
2019-02-12T12:39:18.233Z,97.45
2019-02-12T12:40:18.230Z,97.78
2019-02-12T12:41:18.226Z,96.08
2019-02-12T12:42:18.219Z,95.65
2019-02-12T12:43:18.217Z,94.98
2019-02-12T12:44:39.226Z,93.18
2019-02-12T12:45:18.205Z,91.99
2019-02-12T12:46:18.200Z,92.18
2019-02-12T12:47:18.193Z,92.13
2019-02-12T12:48:18.193Z,92.32
2019-02-12T12:49:18.186Z,92.37
2019-02-12T12:50:39.187Z,93.18
2019-02-12T12:51:18.178Z,93.27
2019-02-12T12:52:18.184Z,93.27